Time;durP1;ratioP1;P1;durP2;ratioP2;P2;SDS_P1;SDS_P2;PMS_P1;PMS_P2;Temp;Humidity;BMP_temperature;BMP_pressure;BME280_temperature;BME280_humidity;BME280_pressure;Samples;Min_cycle;Max_cycle;Signal;HPM_P1;HPM_P2
2024/02/05 00:01:58;;;;;;;1.77;1.67;;;4.00;99.90;;;;;;5030583;28;20398;-77
2024/02/05 00:04:24;;;;;;;1.83;1.30;;;4.00;99.90;;;;;;5028827;28;20532;-78
2024/02/05 00:06:50;;;;;;;2.60;1.25;;;3.90;99.90;;;;;;5029050;28;20017;-79
2024/02/05 00:09:16;;;;;;;1.38;1.27;;;3.90;99.90;;;;;;5030217;28;20447;-77
2024/02/05 00:11:41;;;;;;;1.42;1.33;;;3.90;99.90;;;;;;5028993;28;20025;-77
2024/02/05 00:14:07;;;;;;;1.38;1.00;;;3.90;99.90;;;;;;5029918;28;20045;-78
2024/02/05 00:16:33;;;;;;;1.50;1.40;;;3.90;99.90;;;;;;5030128;28;20059;-78
2024/02/05 00:18:58;;;;;;;1.58;1.48;;;3.90;99.90;;;;;;5030198;28;20498;-77
2024/02/05 00:21:24;;;;;;;1.45;1.38;;;3.90;99.90;;;;;;5028817;28;20025;-78
2024/02/05 00:23:50;;;;;;;2.30;1.60;;;3.90;99.90;;;;;;5029956;28;20021;-77
2024/02/05 00:26:15;;;;;;;2.85;1.95;;;3.90;99.90;;;;;;5028957;28;20025;-77
2024/02/05 00:28:41;;;;;;;1.48;1.38;;;3.90;99.90;;;;;;5030018;28;20135;-78
2024/02/05 00:31:06;;;;;;;2.25;1.35;;;3.80;99.90;;;;;;5028843;28;20022;-78
2024/02/05 00:33:32;;;;;;;1.63;1.48;;;3.80;99.90;;;;;;5028445;28;20033;-76
2024/02/05 00:35:58;;;;;;;1.25;1.20;;;3.80;99.90;;;;;;5030148;28;20024;-77
2024/02/05 00:38:23;;;;;;;1.48;1.42;;;3.80;99.90;;;;;;5028581;28;20028;-77
2024/02/05 00:40:51;;;;;;;1.40;1.30;;;3.80;99.90;;;;;;5028431;28;20377;-77
2024/02/05 00:43:16;;;;;;;1.33;1.23;;;3.80;99.90;;;;;;5028510;28;20017;-77
2024/02/05 00:45:42;;;;;;;1.40;1.30;;;3.80;99.90;;;;;;5029670;28;20363;-77
2024/02/05 00:48:08;;;;;;;1.30;1.20;;;3.80;99.90;;;;;;5029595;28;20390;-78
2024/02/05 00:50:33;;;;;;;1.35;1.25;;;3.80;99.90;;;;;;5029890;28;20017;-77
2024/02/05 00:52:59;;;;;;;1.20;1.10;;;3.80;99.90;;;;;;5027991;28;20541;-78
2024/02/05 00:55:25;;;;;;;1.88;1.77;;;3.80;99.90;;;;;;5028462;28;20120;-77
2024/02/05 00:57:51;;;;;;;1.10;1.00;;;3.80;99.90;;;;;;5028992;28;20030;-78
2024/02/05 01:00:17;;;;;;;1.50;1.10;;;3.70;99.90;;;;;;5028392;28;20055;-77
2024/02/05 01:02:42;;;;;;;0.88;0.88;;;3.70;99.90;;;;;;5028225;28;20120;-77
2024/02/05 01:05:08;;;;;;;1.02;0.93;;;3.70;99.90;;;;;;5029709;28;20104;-78
2024/02/05 01:07:34;;;;;;;1.20;1.05;;;3.70;99.90;;;;;;5028267;28;20018;-77
2024/02/05 01:09:59;;;;;;;1.50;1.00;;;3.70;99.90;;;;;;5028369;28;20026;-77
2024/02/05 01:12:25;;;;;;;1.02;0.90;;;3.70;99.90;;;;;;5029328;28;20030;-77
2024/02/05 01:14:51;;;;;;;0.90;0.90;;;3.70;99.90;;;;;;5029322;28;20037;-78
2024/02/05 01:17:16;;;;;;;1.40;1.27;;;3.70;99.90;;;;;;5029397;28;20032;-78
2024/02/05 01:19:43;;;;;;;1.42;1.33;;;3.70;99.90;;;;;;5029248;28;20024;-77
2024/02/05 01:22:09;;;;;;;1.35;0.90;;;3.60;99.90;;;;;;5029351;28;20030;-78
2024/02/05 01:24:34;;;;;;;1.27;1.17;;;3.70;99.90;;;;;;5027883;28;20032;-78
2024/02/05 01:27:01;;;;;;;1.48;1.38;;;3.70;99.90;;;;;;5029393;28;20028;-77
2024/02/05 01:29:27;;;;;;;1.92;1.67;;;3.70;99.90;;;;;;5029170;28;20090;-78
2024/02/05 01:31:52;;;;;;;2.10;1.90;;;3.60;99.90;;;;;;5029334;28;20021;-78
2024/02/05 01:34:18;;;;;;;2.03;1.73;;;3.70;99.90;;;;;;5029114;28;20105;-78
2024/02/05 01:36:44;;;;;;;3.00;1.63;;;3.70;99.90;;;;;;5029122;28;20017;-77
2024/02/05 01:39:10;;;;;;;1.60;1.50;;;3.70;99.90;;;;;;5028015;28;20043;-78
2024/02/05 01:41:36;;;;;;;1.35;1.30;;;3.60;99.90;;;;;;5028764;28;20068;-78
2024/02/05 01:44:02;;;;;;;1.95;1.73;;;3.60;99.90;;;;;;5029340;28;20014;-78
2024/02/05 01:46:30;;;;;;;1.73;1.55;;;3.60;99.90;;;;;;5027657;28;20067;-78
2024/02/05 01:49:04;;;;;;;1.45;1.30;;;3.60;99.90;;;;;;5029231;28;20097;-78
2024/02/05 01:51:36;;;;;;;1.60;1.40;;;3.60;99.90;;;;;;5027594;28;20068;-79
2024/02/05 01:54:02;;;;;;;1.40;1.30;;;3.70;99.90;;;;;;5028990;28;20394;-78
2024/02/05 01:56:33;;;;;;;1.45;1.35;;;3.70;99.90;;;;;;5027197;28;20017;-77
2024/02/05 01:59:00;;;;;;;4.80;1.10;;;3.70;99.90;;;;;;5027912;28;20070;-78
2024/02/05 02:01:28;;;;;;;1.05;1.05;;;3.70;99.90;;;;;;5028735;28;20670;-77
2024/02/05 02:03:54;;;;;;;1.77;1.27;;;3.70;99.90;;;;;;5028681;28;20030;-78
2024/02/05 02:06:21;;;;;;;1.20;0.98;;;3.70;99.90;;;;;;5028523;28;20056;-77
2024/02/05 02:08:48;;;;;;;0.93;0.90;;;3.70;99.90;;;;;;5030163;28;20060;-78
2024/02/05 02:11:13;;;;;;;1.10;0.90;;;3.70;99.90;;;;;;5030862;28;20049;-79
2024/02/05 02:13:39;;;;;;;0.98;0.98;;;3.70;99.90;;;;;;5030921;28;20501;-78
2024/02/05 02:16:09;;;;;;;1.67;0.90;;;3.70;99.90;;;;;;5031919;28;20394;-78
2024/02/05 02:18:37;;;;;;;2.60;1.08;;;3.70;99.90;;;;;;5030883;28;20029;-78
2024/02/05 02:21:04;;;;;;;1.33;1.23;;;3.70;99.90;;;;;;5031859;28;20017;-77
2024/02/05 02:23:33;;;;;;;1.52;1.30;;;3.70;99.90;;;;;;5030275;28;20108;-77
2024/02/05 02:26:00;;;;;;;1.40;1.00;;;3.70;99.90;;;;;;5030541;28;20021;-77
2024/02/05 02:28:26;;;;;;;1.38;1.27;;;3.70;99.90;;;;;;5032008;28;20021;-78
2024/02/05 02:30:53;;;;;;;1.50;1.40;;;3.70;99.90;;;;;;5030388;28;20025;-78
2024/02/05 02:33:23;;;;;;;3.20;1.50;;;3.70;99.90;;;;;;5030553;28;20432;-78
2024/02/05 02:35:59;;;;;;;3.95;1.75;;;3.70;99.90;;;;;;5031567;28;20024;-78
2024/02/05 02:38:55;;;;;;;1.00;1.00;;;3.70;99.90;;;;;;5031503;28;20503;-78
2024/02/05 02:41:24;;;;;;;1.55;1.15;;;3.70;99.90;;;;;;5030268;28;20097;-77
2024/02/05 02:43:53;;;;;;;1.10;0.85;;;3.70;99.90;;;;;;5031643;28;20018;-78
2024/02/05 02:46:20;;;;;;;3.92;1.10;;;3.70;99.90;;;;;;5031704;28;20155;-77
2024/02/05 02:48:45;;;;;;;1.45;0.98;;;3.70;99.90;;;;;;5116616;27;20045;-78
2024/02/05 02:51:11;;;;;;;2.05;1.00;;;3.70;99.90;;;;;;5030412;28;20113;-77
2024/02/05 02:53:37;;;;;;;1.08;0.80;;;3.70;99.90;;;;;;5029042;28;20025;-78
2024/02/05 02:56:04;;;;;;;0.70;0.70;;;3.70;99.90;;;;;;5031495;28;20501;-77
2024/02/05 02:58:30;;;;;;;1.00;0.73;;;3.70;99.90;;;;;;5031007;28;20013;-79
2024/02/05 03:00:56;;;;;;;1.25;0.90;;;3.70;99.90;;;;;;5031438;28;20021;-78
2024/02/05 03:03:22;;;;;;;0.77;0.77;;;3.80;99.90;;;;;;5030363;28;20021;-77
2024/02/05 03:05:48;;;;;;;0.85;0.85;;;3.70;99.90;;;;;;5031421;28;20028;-77
2024/02/05 03:08:14;;;;;;;0.98;0.90;;;3.70;99.90;;;;;;5029952;28;20440;-78
2024/02/05 03:10:40;;;;;;;1.58;0.90;;;3.70;99.90;;;;;;5030073;28;20113;-77
2024/02/05 03:13:05;;;;;;;1.10;1.10;;;3.80;99.90;;;;;;5030959;28;20096;-77
2024/02/05 03:15:31;;;;;;;1.48;1.10;;;3.80;99.90;;;;;;5029718;28;20078;-76
2024/02/05 03:17:57;;;;;;;1.63;1.50;;;3.80;99.90;;;;;;5029834;28;20010;-77
2024/02/05 03:20:37;;;;;;;1.92;1.83;;;3.80;99.90;;;;;;5030982;28;20116;-79
2024/02/05 03:23:04;;;;;;;2.97;2.40;;;3.80;99.90;;;;;;5019943;28;20108;-78
2024/02/05 03:25:30;;;;;;;8.15;5.43;;;3.80;99.90;;;;;;5029425;28;20025;-77
2024/02/05 03:27:57;;;;;;;10.20;6.03;;;3.80;99.90;;;;;;5029860;28;20535;-77
2024/02/05 03:30:32;;;;;;;8.90;6.50;;;3.90;99.90;;;;;;5030824;28;20049;-79
2024/02/05 03:33:00;;;;;;;14.40;7.85;;;3.90;99.90;;;;;;5029924;28;20423;-77
2024/02/05 03:35:26;;;;;;;10.65;6.85;;;3.90;99.90;;;;;;5031137;28;20352;-79
2024/02/05 03:37:53;;;;;;;10.23;7.00;;;3.90;99.90;;;;;;5030905;28;20033;-78
2024/02/05 03:40:21;;;;;;;13.82;7.93;;;3.90;99.90;;;;;;5029224;28;20390;-77
2024/02/05 03:42:47;;;;;;;10.27;6.45;;;3.90;99.90;;;;;;5030569;28;20045;-78
2024/02/05 03:45:13;;;;;;;8.57;5.90;;;3.90;99.90;;;;;;5030738;28;20018;-77
2024/02/05 03:47:39;;;;;;;7.32;5.05;;;3.90;99.90;;;;;;5028266;28;20013;-78
2024/02/05 03:50:08;;;;;;;6.15;4.10;;;3.90;99.90;;;;;;5030446;28;20496;-78
2024/02/05 03:52:34;;;;;;;6.72;4.70;;;3.90;99.90;;;;;;5030374;28;20066;-78
2024/02/05 03:55:00;;;;;;;5.18;3.53;;;3.90;99.90;;;;;;5029429;28;20041;-76
2024/02/05 03:57:25;;;;;;;4.65;3.92;;;3.90;99.90;;;;;;5030512;28;20022;-78
2024/02/05 03:59:54;;;;;;;5.97;3.72;;;3.90;99.90;;;;;;5030324;28;20029;-77
2024/02/05 04:02:21;;;;;;;3.97;2.80;;;3.90;99.90;;;;;;5030589;28;20138;-78
2024/02/05 04:04:47;;;;;;;8.02;4.78;;;3.90;99.90;;;;;;5030273;28;20402;-77
2024/02/05 04:07:12;;;;;;;7.25;4.13;;;3.90;99.90;;;;;;5030303;28;20112;-78
2024/02/05 04:09:38;;;;;;;4.75;3.35;;;4.00;99.90;;;;;;5029223;28;20097;-78
2024/02/05 04:12:04;;;;;;;4.70;4.22;;;4.00;99.90;;;;;;5030071;28;20108;-79
2024/02/05 04:14:30;;;;;;;3.47;2.72;;;4.00;99.90;;;;;;5030341;28;20041;-79
2024/02/05 04:16:55;;;;;;;3.03;2.72;;;4.00;99.90;;;;;;5028475;28;20017;-78
2024/02/05 04:19:21;;;;;;;4.70;3.17;;;4.00;99.90;;;;;;5030199;28;20040;-79
2024/02/05 04:21:47;;;;;;;4.57;2.90;;;4.00;99.90;;;;;;5028947;28;20030;-77
2024/02/05 04:24:12;;;;;;;7.57;3.80;;;4.00;99.90;;;;;;5030262;28;20845;-79
2024/02/05 04:26:38;;;;;;;6.47;4.00;;;4.00;99.90;;;;;;5028883;28;20017;-78
2024/02/05 04:29:12;;;;;;;6.85;4.13;;;4.10;99.90;;;;;;5028857;28;20018;-77
2024/02/05 04:31:37;;;;;;;5.35;3.90;;;4.10;99.90;;;;;;5027793;28;20036;-79
2024/02/05 04:34:03;;;;;;;5.15;3.60;;;4.10;99.90;;;;;;5029840;28;20029;-77
2024/02/05 04:36:29;;;;;;;5.38;3.92;;;4.20;99.90;;;;;;5029811;28;20037;-79
2024/02/05 04:38:54;;;;;;;5.65;4.07;;;4.10;99.90;;;;;;5029788;28;20025;-77
2024/02/05 04:41:20;;;;;;;7.38;4.63;;;4.20;99.90;;;;;;5028463;28;20170;-78
2024/02/05 04:43:46;;;;;;;10.32;6.05;;;4.10;99.90;;;;;;5029939;28;20051;-79
2024/02/05 04:46:12;;;;;;;11.35;8.18;;;4.20;99.90;;;;;;5028554;28;20101;-79
2024/02/05 04:48:38;;;;;;;14.02;8.32;;;4.20;99.90;;;;;;5028494;28;20112;-79
2024/02/05 04:51:10;;;;;;;12.95;8.85;;;4.20;99.90;;;;;;5029830;28;20025;-77
2024/02/05 04:53:36;;;;;;;18.88;12.13;;;4.20;99.90;;;;;;5015870;28;20112;-78
2024/02/05 04:56:01;;;;;;;19.42;11.23;;;4.30;99.90;;;;;;5028519;28;20159;-78
2024/02/05 04:58:27;;;;;;;18.63;10.32;;;4.30;99.90;;;;;;5029182;28;20021;-77
2024/02/05 05:00:53;;;;;;;21.88;10.48;;;4.30;99.90;;;;;;5029712;28;20022;-77
2024/02/05 05:03:18;;;;;;;19.90;10.52;;;4.30;99.90;;;;;;5028468;28;20363;-77
2024/02/05 05:05:44;;;;;;;16.83;10.30;;;4.40;99.90;;;;;;5028427;28;20052;-77
2024/02/05 05:08:09;;;;;;;21.73;10.82;;;4.40;99.90;;;;;;5028206;28;20013;-79
2024/02/05 05:10:35;;;;;;;16.55;10.70;;;4.40;99.90;;;;;;5028332;28;20044;-77
2024/02/05 05:13:05;;;;;;;15.50;9.75;;;4.50;99.90;;;;;;5029280;28;20053;-77
2024/02/05 05:15:31;;;;;;;13.43;8.90;;;4.60;99.90;;;;;;5029422;28;20536;-77
2024/02/05 05:17:57;;;;;;;16.85;10.43;;;4.60;99.90;;;;;;5024569;28;20022;-77
2024/02/05 05:20:22;;;;;;;15.57;10.15;;;4.70;99.90;;;;;;5028241;28;20075;-78
2024/02/05 05:22:48;;;;;;;16.50;11.50;;;4.80;99.90;;;;;;5027897;28;20066;-79
2024/02/05 05:25:14;;;;;;;18.10;11.00;;;4.80;99.90;;;;;;5029494;28;20026;-77
2024/02/05 05:27:39;;;;;;;17.63;12.43;;;4.90;99.90;;;;;;5029065;28;20033;-79
2024/02/05 05:30:06;;;;;;;15.50;10.75;;;4.90;99.90;;;;;;5029425;28;20047;-79
2024/02/05 05:32:32;;;;;;;16.30;10.73;;;5.00;99.90;;;;;;5027783;28;20360;-77
2024/02/05 05:34:57;;;;;;;15.80;10.43;;;5.00;99.90;;;;;;5028726;28;20062;-77
2024/02/05 05:37:25;;;;;;;13.82;10.18;;;5.10;99.90;;;;;;5029115;28;20493;-78
2024/02/05 05:39:51;;;;;;;13.13;10.18;;;5.20;99.90;;;;;;5029021;28;20014;-77
2024/02/05 05:42:17;;;;;;;12.40;9.15;;;5.30;99.90;;;;;;5029633;28;20424;-77
2024/02/05 05:44:43;;;;;;;14.50;10.05;;;5.30;99.90;;;;;;5032126;28;20090;-77
2024/02/05 05:47:09;;;;;;;13.52;10.40;;;5.30;99.90;;;;;;5031358;28;20080;-78
2024/02/05 05:49:34;;;;;;;17.13;11.55;;;5.40;99.90;;;;;;5032449;28;20444;-77
2024/02/05 05:52:00;;;;;;;15.57;11.13;;;5.40;99.90;;;;;;5031340;28;20025;-77
2024/02/05 05:54:27;;;;;;;18.60;11.10;;;5.50;99.90;;;;;;5031667;28;20029;-77
2024/02/05 05:56:52;;;;;;;15.48;11.55;;;5.50;99.90;;;;;;5030335;28;20024;-77
2024/02/05 05:59:19;;;;;;;17.00;10.60;;;5.50;99.90;;;;;;5029800;28;20022;-77
2024/02/05 06:01:45;;;;;;;18.05;12.13;;;5.60;99.90;;;;;;5030873;28;20025;-77
2024/02/05 06:04:10;;;;;;;18.27;12.57;;;5.60;99.90;;;;;;5032035;28;20055;-77
2024/02/05 06:06:37;;;;;;;19.42;12.15;;;5.60;99.90;;;;;;5030200;28;20088;-77
2024/02/05 06:09:05;;;;;;;22.15;14.18;;;5.70;99.90;;;;;;5032171;28;20026;-77
2024/02/05 06:11:31;;;;;;;20.25;13.32;;;5.70;99.90;;;;;;5030627;28;20026;-79
2024/02/05 06:13:57;;;;;;;25.05;15.35;;;5.80;99.90;;;;;;5029709;28;20112;-79
2024/02/05 06:16:23;;;;;;;21.95;14.00;;;5.80;99.90;;;;;;5031628;28;20728;-79
2024/02/05 06:18:48;;;;;;;20.85;14.15;;;5.80;99.90;;;;;;5032095;28;20025;-79
2024/02/05 06:21:14;;;;;;;18.52;12.73;;;5.90;99.90;;;;;;5032080;28;20078;-78
2024/02/05 06:23:40;;;;;;;22.23;14.02;;;5.90;99.90;;;;;;5031320;28;20028;-78
2024/02/05 06:26:07;;;;;;;17.95;11.82;;;5.90;99.90;;;;;;5028070;28;20044;-79
2024/02/05 06:28:33;;;;;;;20.65;14.32;;;6.00;99.90;;;;;;5031659;28;20022;-80
2024/02/05 06:30:59;;;;;;;14.77;10.50;;;6.00;99.90;;;;;;5029344;28;20028;-79
2024/02/05 06:33:25;;;;;;;13.68;10.63;;;6.00;99.90;;;;;;5026070;28;20034;-77
2024/02/05 06:35:51;;;;;;;14.98;10.88;;;6.10;99.90;;;;;;5031248;28;20029;-78
2024/02/05 06:38:17;;;;;;;17.38;12.05;;;6.10;99.90;;;;;;5023634;28;20034;-78
2024/02/05 06:40:43;;;;;;;11.02;8.68;;;6.10;99.90;;;;;;5023635;28;20021;-79
2024/02/05 06:43:11;;;;;;;13.52;9.60;;;6.10;99.90;;;;;;5022658;28;20041;-78
2024/02/05 06:45:37;;;;;;;13.57;10.93;;;6.20;99.90;;;;;;5028769;28;20026;-79
2024/02/05 06:48:03;;;;;;;9.98;7.57;;;6.20;99.90;;;;;;5029567;28;20032;-77
2024/02/05 06:50:29;;;;;;;8.35;7.25;;;6.20;99.90;;;;;;5028352;27;20108;-79
2024/02/05 06:52:55;;;;;;;6.85;5.90;;;6.30;99.90;;;;;;5022383;28;20105;-79
2024/02/05 06:55:20;;;;;;;5.63;3.55;;;6.30;99.90;;;;;;5027964;28;20050;-78
2024/02/05 06:57:46;;;;;;;3.53;2.80;;;6.30;99.90;;;;;;5028833;28;20029;-78
2024/02/05 07:00:12;;;;;;;2.97;2.60;;;6.40;99.90;;;;;;5025651;28;20067;-79
2024/02/05 07:02:38;;;;;;;3.50;3.20;;;6.40;99.90;;;;;;5029744;27;20057;-78
2024/02/05 07:05:05;;;;;;;2.55;2.17;;;6.40;99.90;;;;;;5030117;28;20018;-78
2024/02/05 07:07:31;;;;;;;1.15;0.90;;;6.40;99.90;;;;;;5030658;28;20025;-78
2024/02/05 07:09:56;;;;;;;2.38;1.08;;;6.30;99.90;;;;;;5031211;28;20464;-78
2024/02/05 07:12:23;;;;;;;1.85;1.23;;;6.30;99.90;;;;;;5031694;27;20029;-79
2024/02/05 07:14:49;;;;;;;1.10;1.00;;;6.30;99.90;;;;;;5023404;27;20514;-78
2024/02/05 07:17:15;;;;;;;2.08;1.40;;;6.30;99.90;;;;;;5024723;28;20044;-79
2024/02/05 07:19:41;;;;;;;1.38;1.20;;;6.30;99.90;;;;;;5028041;28;20060;-79
2024/02/05 07:22:12;;;;;;;1.45;1.00;;;6.30;99.90;;;;;;5030156;28;20025;-79
2024/02/05 07:24:38;;;;;;;2.22;1.00;;;6.30;99.90;;;;;;5029308;28;20030;-79
2024/02/05 07:27:04;;;;;;;0.88;0.82;;;6.30;99.90;;;;;;5019924;28;20045;-79
2024/02/05 07:29:29;;;;;;;0.80;0.80;;;6.30;99.90;;;;;;5029792;27;20126;-77
2024/02/05 07:31:55;;;;;;;1.23;0.60;;;6.30;99.90;;;;;;5018329;28;20033;-78
2024/02/05 07:34:21;;;;;;;1.25;1.10;;;6.30;99.90;;;;;;5029706;28;20025;-78
2024/02/05 07:36:47;;;;;;;3.47;1.70;;;6.30;99.90;;;;;;5023794;28;20022;-78
2024/02/05 07:39:13;;;;;;;0.98;0.90;;;6.30;99.90;;;;;;5019072;28;20116;-78
2024/02/05 07:41:39;;;;;;;1.42;0.60;;;6.30;99.90;;;;;;5012697;28;20049;-79
2024/02/05 07:44:05;;;;;;;0.50;0.50;;;6.30;99.90;;;;;;5028399;28;20028;-79
2024/02/05 07:46:31;;;;;;;0.63;0.57;;;6.30;99.90;;;;;;5015992;28;20033;-79
2024/02/05 07:48:57;;;;;;;0.65;0.65;;;6.30;99.90;;;;;;5028109;28;20060;-79
2024/02/05 07:51:23;;;;;;;6.03;1.02;;;6.30;99.90;;;;;;5018059;28;20086;-78
2024/02/05 07:53:49;;;;;;;0.88;0.70;;;6.30;99.90;;;;;;5027808;28;20034;-77
2024/02/05 07:56:15;;;;;;;0.57;0.57;;;6.30;99.90;;;;;;5016119;28;20033;-77
2024/02/05 07:58:41;;;;;;;0.68;0.68;;;6.40;99.90;;;;;;5029507;28;20043;-78
2024/02/05 08:01:07;;;;;;;0.85;0.60;;;6.40;99.90;;;;;;5029520;28;20455;-79
2024/02/05 08:03:35;;;;;;;0.80;0.80;;;6.40;99.90;;;;;;5029323;28;20032;-78
2024/02/05 08:06:04;;;;;;;0.95;0.90;;;6.40;99.90;;;;;;5016570;28;20491;-78
2024/02/05 08:08:30;;;;;;;1.10;1.10;;;6.40;99.90;;;;;;5010635;28;20025;-78
2024/02/05 08:10:56;;;;;;;0.98;0.85;;;6.40;99.90;;;;;;5029710;28;20033;-77
2024/02/05 08:13:21;;;;;;;2.30;1.00;;;6.40;99.90;;;;;;5030148;28;20363;-78
2024/02/05 08:15:47;;;;;;;2.20;0.77;;;6.50;99.90;;;;;;5028635;28;20037;-77
2024/02/05 08:18:12;;;;;;;1.50;1.10;;;6.40;99.90;;;;;;5028984;28;20029;-77
2024/02/05 08:20:38;;;;;;;1.75;0.90;;;6.40;99.90;;;;;;5028256;28;20060;-78
2024/02/05 08:23:04;;;;;;;1.77;1.00;;;6.50;99.90;;;;;;5018216;28;20062;-78
2024/02/05 08:25:30;;;;;;;1.90;1.42;;;6.50;99.90;;;;;;5029793;28;20490;-78
2024/02/05 08:27:57;;;;;;;0.85;0.80;;;6.50;99.90;;;;;;5029043;28;20026;-77
2024/02/05 08:30:22;;;;;;;1.77;1.10;;;6.50;99.90;;;;;;5027438;28;20551;-79
2024/02/05 08:32:48;;;;;;;1.48;1.00;;;6.60;99.90;;;;;;5031122;28;20057;-79
2024/02/05 08:35:14;;;;;;;1.50;1.00;;;6.60;99.90;;;;;;5028321;28;20025;-79
2024/02/05 08:37:39;;;;;;;1.27;1.15;;;6.60;99.90;;;;;;5029791;28;20021;-78
2024/02/05 08:40:09;;;;;;;4.00;2.17;;;6.60;99.90;;;;;;5029250;28;20112;-78
2024/02/05 08:42:36;;;;;;;2.97;2.10;;;6.60;99.90;;;;;;5028312;28;20461;-78
2024/02/05 08:45:03;;;;;;;2.67;2.00;;;6.60;99.90;;;;;;5029769;28;20048;-78
2024/02/05 08:47:28;;;;;;;3.47;1.90;;;6.60;99.90;;;;;;5029514;28;20029;-78
2024/02/05 08:49:54;;;;;;;5.25;3.60;;;6.60;99.90;;;;;;5028426;28;20020;-78
2024/02/05 08:52:22;;;;;;;3.13;2.28;;;6.60;99.90;;;;;;5025040;28;20048;-77
2024/02/05 08:54:48;;;;;;;2.47;2.22;;;6.60;99.90;;;;;;5026380;28;20047;-78
2024/02/05 08:57:14;;;;;;;5.93;5.32;;;6.60;99.90;;;;;;5029538;28;20022;-78
2024/02/05 08:59:40;;;;;;;3.45;3.15;;;6.60;99.90;;;;;;5018100;28;20047;-78
2024/02/05 09:02:06;;;;;;;5.88;5.30;;;6.60;99.90;;;;;;5018282;28;20024;-77
2024/02/05 09:04:32;;;;;;;10.55;9.40;;;6.60;99.90;;;;;;5026102;28;20021;-77
2024/02/05 09:06:58;;;;;;;9.23;7.78;;;6.60;99.90;;;;;;5027819;28;20451;-78
2024/02/05 09:09:23;;;;;;;5.07;4.00;;;6.60;99.90;;;;;;5029962;28;20022;-78
2024/02/05 09:11:49;;;;;;;95.43;49.53;;;6.60;99.90;;;;;;5028282;28;20086;-79
2024/02/05 09:14:15;;;;;;;86.63;42.78;;;6.60;99.90;;;;;;5028814;28;20037;-78
2024/02/05 09:16:40;;;;;;;125.72;50.60;;;6.60;99.90;;;;;;5028540;28;20041;-78
2024/02/05 09:19:06;;;;;;;179.93;70.65;;;6.60;99.90;;;;;;5018604;28;20573;-78
2024/02/05 09:21:32;;;;;;;247.63;93.80;;;6.60;99.90;;;;;;5030390;28;20026;-78
2024/02/05 09:23:57;;;;;;;50.40;19.52;;;6.60;99.90;;;;;;5025874;28;20406;-78
2024/02/05 09:26:23;;;;;;;208.82;71.05;;;6.60;99.90;;;;;;5029546;28;20028;-79
2024/02/05 09:28:49;;;;;;;29.90;10.57;;;6.70;99.90;;;;;;5029859;28;20021;-78
2024/02/05 09:31:14;;;;;;;287.52;94.75;;;6.60;99.90;;;;;;5029281;28;20017;-78
2024/02/05 09:33:40;;;;;;;108.43;36.15;;;6.70;99.90;;;;;;5030502;28;20044;-79
2024/02/05 09:36:06;;;;;;;146.90;45.95;;;6.70;99.90;;;;;;5029199;28;20029;-79
2024/02/05 09:38:32;;;;;;;129.68;42.83;;;6.70;99.90;;;;;;5031526;28;20575;-78
2024/02/05 09:41:04;;;;;;;250.43;85.45;;;6.70;99.90;;;;;;5032012;28;20033;-79
2024/02/05 09:43:33;;;;;;;376.23;129.77;;;6.60;99.90;;;;;;5031496;28;20482;-78
2024/02/05 09:46:05;;;;;;;351.00;124.65;;;6.60;99.90;;;;;;5031961;28;20037;-79
2024/02/05 09:48:35;;;;;;;155.68;58.40;;;6.60;99.90;;;;;;5031467;28;20033;-78
2024/02/05 09:51:04;;;;;;;24.35;9.68;;;6.70;99.90;;;;;;5031649;28;20040;-78
2024/02/05 09:53:32;;;;;;;50.60;20.23;;;6.70;99.90;;;;;;5035543;28;20539;-78
2024/02/05 09:55:58;;;;;;;88.50;32.78;;;6.60;99.90;;;;;;5030731;28;20037;-79
2024/02/05 09:58:25;;;;;;;41.15;16.50;;;6.70;99.90;;;;;;5030490;28;20064;-78
2024/02/05 10:00:51;;;;;;;176.35;60.03;;;6.70;99.90;;;;;;5031053;28;20032;-79
2024/02/05 10:03:18;;;;;;;75.82;29.70;;;6.60;99.90;;;;;;5030929;28;20028;-80
2024/02/05 10:05:49;;;;;;;61.65;26.35;;;6.70;99.90;;;;;;5030860;28;20026;-78
2024/02/05 10:08:16;;;;;;;80.90;30.98;;;6.70;99.90;;;;;;5020233;28;20442;-78
2024/02/05 10:10:44;;;;;;;109.90;44.95;;;6.70;99.90;;;;;;5031927;28;20029;-79
2024/02/05 10:13:11;;;;;;;68.57;27.38;;;6.70;99.90;;;;;;5064165;27;20070;-79
2024/02/05 10:15:39;;;;;;;15.43;6.35;;;6.70;99.90;;;;;;5032058;28;20025;-79
2024/02/05 10:18:05;;;;;;;57.72;26.70;;;6.70;99.90;;;;;;5030900;28;20105;-78
2024/02/05 10:20:34;;;;;;;77.00;37.50;;;6.70;99.90;;;;;;5032171;28;20017;-79
2024/02/05 10:23:00;;;;;;;64.40;27.58;;;6.70;99.90;;;;;;5030747;28;20050;-78
2024/02/05 10:25:30;;;;;;;65.45;28.95;;;6.70;99.90;;;;;;5032097;28;20043;-78
2024/02/05 10:28:02;;;;;;;33.08;16.83;;;6.70;99.90;;;;;;5031802;28;20021;-79
2024/02/05 10:30:29;;;;;;;36.13;20.60;;;6.70;99.90;;;;;;5030589;28;20025;-78
2024/02/05 10:32:58;;;;;;;23.80;11.82;;;6.60;99.90;;;;;;5027842;28;20534;-78
2024/02/05 10:35:25;;;;;;;28.98;18.42;;;6.60;99.90;;;;;;5029566;28;20419;-80
2024/02/05 10:37:51;;;;;;;54.70;28.35;;;6.60;99.90;;;;;;5031514;28;20029;-79
2024/02/05 10:40:17;;;;;;;29.23;14.40;;;6.60;99.90;;;;;;5031630;28;20036;-79
2024/02/05 10:42:43;;;;;;;31.02;14.68;;;6.60;99.90;;;;;;5031525;28;20513;-79
2024/02/05 10:45:10;;;;;;;13.57;7.05;;;6.60;99.90;;;;;;5030496;28;20024;-79
2024/02/05 10:47:36;;;;;;;28.83;15.68;;;6.60;99.90;;;;;;5031496;28;20041;-78
2024/02/05 10:50:07;;;;;;;14.65;8.15;;;6.70;99.90;;;;;;5030454;28;20010;-78
2024/02/05 10:52:33;;;;;;;11.73;6.57;;;6.60;99.90;;;;;;5031489;28;20022;-78
2024/02/05 10:55:02;;;;;;;10.98;6.05;;;6.80;99.90;;;;;;5030336;28;20037;-79
2024/02/05 10:57:28;;;;;;;12.00;6.60;;;6.80;99.90;;;;;;5031669;28;20389;-79
2024/02/05 10:59:54;;;;;;;8.63;4.70;;;6.90;99.90;;;;;;5031190;28;20022;-78
2024/02/05 11:02:25;;;;;;;10.82;6.22;;;6.90;99.90;;;;;;5031378;28;20051;-79
2024/02/05 11:04:56;;;;;;;6.03;5.13;;;7.00;99.90;;;;;;5031468;28;20017;-81
2024/02/05 11:07:25;;;;;;;7.40;5.50;;;7.00;99.90;;;;;;5030103;28;20136;-79
2024/02/05 11:09:52;;;;;;;5.53;4.00;;;7.00;99.90;;;;;;5021160;28;20166;-78
2024/02/05 11:12:22;;;;;;;4.38;3.78;;;7.00;99.90;;;;;;5027576;28;20093;-78
2024/02/05 11:14:50;;;;;;;5.32;4.00;;;7.00;99.90;;;;;;5029923;28;20086;-78
2024/02/05 11:17:18;;;;;;;4.50;3.45;;;7.00;99.90;;;;;;5029623;27;20179;-77
2024/02/05 11:19:47;;;;;;;3.75;3.40;;;7.10;99.90;;;;;;5030597;27;20021;-77
2024/02/05 11:22:16;;;;;;;4.68;3.63;;;7.00;99.90;;;;;;5027768;28;20055;-77
2024/02/05 11:24:42;;;;;;;5.68;3.53;;;7.10;99.90;;;;;;5026594;28;20022;-77
2024/02/05 11:27:09;;;;;;;4.25;3.30;;;7.10;99.90;;;;;;5029833;28;20394;-77
2024/02/05 11:29:36;;;;;;;4.75;3.38;;;7.10;99.90;;;;;;5029866;28;20017;-77
2024/02/05 11:32:05;;;;;;;7.65;3.63;;;7.10;99.90;;;;;;5029973;27;20026;-77
2024/02/05 11:34:36;;;;;;;3.20;2.90;;;7.10;99.90;;;;;;5028517;28;20079;-78
2024/02/05 11:37:21;;;;;;;7.80;4.03;;;7.10;99.90;;;;;;5027362;28;20398;-77
2024/02/05 11:39:47;;;;;;;9.18;5.88;;;7.10;99.90;;;;;;5028862;28;20031;-78
2024/02/05 11:42:17;;;;;;;25.92;10.35;;;7.10;99.90;;;;;;5022758;28;20057;-78
2024/02/05 11:44:43;;;;;;;25.10;9.73;;;7.10;99.90;;;;;;5030468;27;20451;-78
2024/02/05 11:47:11;;;;;;;28.50;11.80;;;7.10;99.90;;;;;;5028700;28;20108;-77
2024/02/05 11:49:37;;;;;;;25.58;8.80;;;7.10;99.90;;;;;;5029034;28;20029;-78
2024/02/05 11:52:03;;;;;;;29.33;9.65;;;7.10;99.90;;;;;;5030093;28;20064;-77
2024/02/05 11:54:30;;;;;;;32.55;11.45;;;7.10;99.90;;;;;;5027594;28;20543;-77
2024/02/05 11:56:56;;;;;;;34.53;11.85;;;7.10;99.90;;;;;;5030405;28;20033;-77
2024/02/05 11:59:22;;;;;;;26.05;8.60;;;7.10;99.90;;;;;;5030109;28;20502;-77
2024/02/05 12:01:48;;;;;;;31.42;10.05;;;7.10;99.90;;;;;;5030116;28;20471;-76
2024/02/05 12:04:14;;;;;;;30.67;10.75;;;7.10;99.90;;;;;;5023635;28;20018;-77
2024/02/05 12:06:43;;;;;;;27.42;7.85;;;7.20;99.90;;;;;;5028846;28;20021;-77
2024/02/05 12:09:12;;;;;;;20.33;8.10;;;7.20;99.90;;;;;;5029386;28;20014;-77
2024/02/05 12:11:38;;;;;;;32.95;11.23;;;7.20;99.90;;;;;;5028395;28;20030;-77
2024/02/05 12:14:06;;;;;;;27.92;10.20;;;7.20;99.90;;;;;;5029712;28;20494;-77
2024/02/05 12:16:32;;;;;;;32.58;11.23;;;7.20;99.90;;;;;;5022110;27;20125;-78
2024/02/05 12:18:58;;;;;;;23.75;9.00;;;7.20;99.90;;;;;;5028910;28;20104;-77
2024/02/05 12:21:25;;;;;;;23.05;8.75;;;7.20;99.90;;;;;;5026371;28;20071;-78
2024/02/05 12:23:51;;;;;;;46.80;17.63;;;7.20;99.90;;;;;;5026775;28;20457;-78
2024/02/05 12:26:18;;;;;;;28.65;13.27;;;7.20;99.90;;;;;;5021904;28;20394;-77
2024/02/05 12:28:50;;;;;;;39.15;16.67;;;7.20;99.90;;;;;;5028776;27;20387;-77
2024/02/05 12:31:20;;;;;;;53.75;23.58;;;7.20;99.90;;;;;;5025578;28;20518;-78
2024/02/05 12:33:59;;;;;;;23.70;10.02;;;7.20;99.90;;;;;;5028410;28;20033;-78
2024/02/05 12:36:37;;;;;;;16.27;7.50;;;7.20;99.90;;;;;;5024460;27;20030;-78
2024/02/05 12:39:05;;;;;;;27.30;10.60;;;7.10;99.90;;;;;;5029760;28;20021;-77
2024/02/05 12:41:33;;;;;;;12.30;6.90;;;7.20;99.90;;;;;;5028588;27;20049;-77
2024/02/05 12:43:58;;;;;;;18.40;8.40;;;7.20;99.90;;;;;;5026825;28;20105;-77
2024/02/05 12:46:24;;;;;;;16.00;6.72;;;7.20;99.90;;;;;;5019590;28;20117;-77